createdAt,value
2024-01-16T00:14:21.673Z,94.81
2024-01-16T00:17:47.848Z,95.19
2024-01-16T00:21:13.414Z,95.15
2024-01-16T00:23:47.732Z,95.40
2024-01-16T00:27:04.706Z,95.32
2024-01-16T00:30:56.313Z,95.50
2024-01-16T00:35:08.176Z,95.43
2024-01-16T00:41:55.551Z,95.57
2024-01-16T00:46:20.038Z,95.02
2024-01-16T00:50:48.105Z,95.10
2024-01-16T00:54:39.578Z,94.82
2024-01-16T00:57:51.140Z,94.95
2024-01-16T01:01:57.504Z,94.85
2024-01-16T01:05:51.608Z,95.33
2024-01-16T01:10:02.917Z,95.33
2024-01-16T01:14:15.208Z,95.37
2024-01-16T01:18:29.780Z,95.64
2024-01-16T01:22:03.877Z,95.46
2024-01-16T01:24:57.386Z,95.51
2024-01-16T01:27:31.981Z,95.68
2024-01-16T01:34:36.038Z,95.61
2024-01-16T01:38:09.850Z,95.75
2024-01-16T01:46:45.600Z,95.73
2024-01-16T01:50:27.476Z,96.01
2024-01-16T01:54:02.786Z,96.17
2024-01-16T01:56:35.274Z,96.28
2024-01-16T01:59:07.675Z,96.46
2024-01-16T02:06:30.626Z,96.29
2024-01-16T02:09:53.918Z,96.55
2024-01-16T02:13:27.322Z,96.69
2024-01-16T02:17:46.919Z,96.68
2024-01-16T02:22:16.511Z,96.67
2024-01-16T02:26:01.874Z,97.02
2024-01-16T02:32:57.040Z,96.94
2024-01-16T02:41:02.802Z,97.27
2024-01-16T02:43:56.444Z,97.46
2024-01-16T02:46:47.860Z,97.57
2024-01-16T02:50:58.874Z,97.40
2024-01-16T02:54:13.364Z,97.39
2024-01-16T02:57:27.558Z,97.66
2024-01-16T02:59:58.857Z,97.45
2024-01-16T03:02:31.474Z,97.54
2024-01-16T03:05:27.895Z,97.47
2024-01-16T03:09:18.831Z,97.23
2024-01-16T03:11:50.919Z,97.43
2024-01-16T03:19:18.307Z,97.74
2024-01-16T03:21:50.304Z,97.44
2024-01-16T03:25:16.081Z,97.31
2024-01-16T03:28:12.035Z,97.44
2024-01-16T03:32:31.458Z,97.40
2024-01-16T03:36:05.207Z,97.19
2024-01-16T03:43:13.004Z,97.30
2024-01-16T03:49:52.088Z,97.32
2024-01-16T03:53:54.065Z,97.05
2024-01-16T03:57:56.502Z,97.14
2024-01-16T04:00:53.039Z,97.03
2024-01-16T04:05:24.539Z,96.72
2024-01-16T04:08:55.994Z,97.36
2024-01-16T04:11:37.532Z,97.29
2024-01-16T04:14:10.023Z,97.49
2024-01-16T04:18:21.910Z,97.17
2024-01-16T04:22:15.360Z,97.24
2024-01-16T04:25:50.795Z,97.53
2024-01-16T04:32:42.227Z,96.93
2024-01-16T04:35:14.456Z,96.91
2024-01-16T04:49:52.488Z,96.52
2024-01-16T04:52:45.413Z,96.56
2024-01-16T04:55:18.047Z,96.46
2024-01-16T04:59:09.474Z,96.57
2024-01-16T05:02:23.841Z,96.66
2024-01-16T05:04:55.804Z,96.54
2024-01-16T05:07:47.866Z,96.15
2024-01-16T05:10:20.263Z,96.26
2024-01-16T05:13:58.483Z,96.18
2024-01-16T05:17:10.338Z,96.00
2024-01-16T05:20:41.606Z,96.13
2024-01-16T05:23:53.671Z,96.08
2024-01-16T05:27:13.834Z,95.93
2024-01-16T05:31:06.454Z,96.27
2024-01-16T05:34:18.703Z,96.10
2024-01-16T05:37:33.497Z,96.09
2024-01-16T05:40:27.116Z,95.88
2024-01-16T05:44:06.425Z,96.11
2024-01-16T05:48:21.428Z,96.06
2024-01-16T05:52:15.476Z,96.35
2024-01-16T05:55:16.778Z,96.75
2024-01-16T05:59:09.910Z,96.73
2024-01-16T06:02:02.874Z,96.73
2024-01-16T06:06:14.831Z,96.69
2024-01-16T06:09:57.143Z,97.14
2024-01-16T06:13:28.446Z,97.05
2024-01-16T06:19:54.806Z,97.12
2024-01-16T06:24:05.749Z,97.28
2024-01-16T06:27:17.536Z,97.58
2024-01-16T06:31:28.779Z,97.88
2024-01-16T06:34:20.382Z,97.99
2024-01-16T06:37:57.705Z,97.94
2024-01-16T06:41:09.897Z,98.15
2024-01-16T06:45:21.517Z,98.04
2024-01-16T06:47:53.103Z,97.75
2024-01-16T06:50:24.934Z,97.87
2024-01-16T06:53:26.056Z,98.06
2024-01-16T06:56:38.434Z,97.80
2024-01-16T06:59:53.012Z,97.64
2024-01-16T07:03:44.257Z,97.44
2024-01-16T07:07:15.631Z,97.43
2024-01-16T07:11:26.647Z,97.59
2024-01-16T07:15:37.641Z,97.43
2024-01-16T07:18:29.854Z,97.57
2024-01-16T07:21:22.971Z,97.56
2024-01-16T07:25:02.446Z,97.64
2024-01-16T07:28:35.474Z,97.27
2024-01-16T07:32:28.865Z,97.17
2024-01-16T07:35:45.159Z,97.58
2024-01-16T07:39:16.550Z,97.30
2024-01-16T07:43:08.772Z,97.29
2024-01-16T07:45:44.796Z,97.48
2024-01-16T07:49:38.392Z,97.60
2024-01-16T07:53:49.822Z,97.23
2024-01-16T07:57:01.534Z,97.28
2024-01-16T08:00:53.818Z,97.05
2024-01-16T08:04:07.209Z,97.01
2024-01-16T08:08:18.133Z,97.26
2024-01-16T08:11:49.795Z,97.02
2024-01-16T08:14:46.806Z,97.05
2024-01-16T08:21:27.054Z,96.79
2024-01-16T08:25:38.117Z,96.67
2024-01-16T08:29:17.708Z,96.52
2024-01-16T08:32:31.124Z,96.43
2024-01-16T08:36:02.312Z,96.04
2024-01-16T08:39:34.937Z,96.50
2024-01-16T08:42:56.737Z,96.69
2024-01-16T08:46:32.778Z,96.38
2024-01-16T08:49:44.098Z,96.41
2024-01-16T08:53:01.818Z,96.43
2024-01-16T08:55:53.765Z,96.59
2024-01-16T09:00:04.908Z,95.91
2024-01-16T09:02:41.210Z,95.81
2024-01-16T09:06:33.954Z,95.84
2024-01-16T09:10:06.769Z,95.54
2024-01-16T09:13:02.799Z,95.53
2024-01-16T09:16:56.500Z,95.65
2024-01-16T09:24:36.661Z,94.86
2024-01-16T09:27:11.468Z,94.44
2024-01-16T09:29:46.908Z,94.84
2024-01-16T09:36:29.835Z,92.94
2024-01-16T09:40:25.053Z,92.55
2024-01-16T09:42:56.698Z,92.06
2024-01-16T09:45:47.811Z,91.33
2024-01-16T09:48:20.911Z,89.97
2024-01-16T09:51:15.593Z,89.65
2024-01-16T09:55:07.721Z,89.96
2024-01-16T09:58:59.432Z,88.39
2024-01-16T10:02:51.437Z,87.41
2024-01-16T10:05:26.390Z,87.93
2024-01-16T10:09:02.379Z,87.24
2024-01-16T10:12:13.480Z,86.29
2024-01-16T10:16:09.010Z,85.59
2024-01-16T10:20:20.251Z,86.03
2024-01-16T10:23:17.602Z,85.43
2024-01-16T10:26:07.376Z,84.98
2024-01-16T10:28:49.118Z,83.91
2024-01-16T10:31:20.245Z,84.34
2024-01-16T10:33:52.259Z,83.10
2024-01-16T10:36:23.306Z,82.57
2024-01-16T10:38:58.811Z,81.98
2024-01-16T10:41:40.095Z,82.05
2024-01-16T10:45:54.476Z,80.52
2024-01-16T10:49:46.175Z,80.96
2024-01-16T10:53:39.901Z,78.83
2024-01-16T10:56:36.951Z,79.30
2024-01-16T11:00:00.902Z,78.76
2024-01-16T11:03:43.303Z,77.15
2024-01-16T11:10:47.675Z,76.57
2024-01-16T11:22:17.003Z,72.67
2024-01-16T11:26:09.843Z,73.22
2024-01-16T11:29:40.411Z,72.42
2024-01-16T11:33:53.627Z,73.21
2024-01-16T11:38:08.720Z,72.67
2024-01-16T11:41:55.727Z,72.66
2024-01-16T11:46:03.752Z,71.44
2024-01-16T11:49:45.426Z,71.26
2024-01-16T11:53:51.878Z,71.71
2024-01-16T11:57:56.847Z,71.64
2024-01-16T12:02:08.062Z,71.10
2024-01-16T12:06:04.932Z,70.82
2024-01-16T12:09:56.710Z,71.20
2024-01-16T12:13:40.112Z,71.73
2024-01-16T12:17:15.942Z,70.97
2024-01-16T12:21:15.297Z,70.76
2024-01-16T12:28:10.536Z,70.94
2024-01-16T12:32:10.772Z,69.98
2024-01-16T12:36:25.072Z,69.11
2024-01-16T12:40:23.189Z,68.20
2024-01-16T12:44:43.950Z,68.68
2024-01-16T12:48:09.624Z,68.50
2024-01-16T12:52:05.955Z,68.44
2024-01-16T12:56:18.170Z,68.05
2024-01-16T13:04:16.466Z,69.40
2024-01-16T13:07:12.437Z,70.03
2024-01-16T13:10:06.617Z,69.46
2024-01-16T13:13:36.185Z,69.47
2024-01-16T13:16:50.519Z,68.14
2024-01-16T13:19:23.010Z,68.12
2024-01-16T13:23:27.786Z,68.38
2024-01-16T13:29:41.789Z,68.34
2024-01-16T13:32:33.475Z,68.89
2024-01-16T13:36:54.750Z,68.69
2024-01-16T13:40:55.385Z,70.28
2024-01-16T13:44:08.063Z,70.31
2024-01-16T13:47:41.801Z,70.84
2024-01-16T13:51:52.261Z,71.07
2024-01-16T13:54:23.832Z,70.97
2024-01-16T13:57:16.296Z,71.21
2024-01-16T14:01:10.818Z,70.14
2024-01-16T14:04:22.699Z,70.51
2024-01-16T14:07:34.097Z,70.56
2024-01-16T14:11:45.756Z,69.56
2024-01-16T14:15:56.823Z,69.38
2024-01-16T14:18:57.575Z,69.17
2024-01-16T14:21:29.197Z,69.56
2024-01-16T14:24:42.534Z,70.15
2024-01-16T14:28:18.606Z,70.80
2024-01-16T14:31:25.587Z,70.85
2024-01-16T14:33:56.994Z,71.23
2024-01-16T14:36:29.592Z,71.28
2024-01-16T14:39:02.705Z,71.45
2024-01-16T14:42:04.436Z,71.38
2024-01-16T14:44:37.666Z,71.66
2024-01-16T14:48:12.778Z,71.86
2024-01-16T14:50:44.901Z,72.14
2024-01-16T14:53:16.247Z,72.26
2024-01-16T14:55:48.557Z,72.45
2024-01-16T14:58:24.132Z,72.66
2024-01-16T15:01:15.879Z,72.96
2024-01-16T15:05:22.791Z,73.07
2024-01-16T15:08:37.569Z,73.38
2024-01-16T15:12:37.307Z,73.66
2024-01-16T15:15:54.179Z,73.97
2024-01-16T15:19:55.021Z,74.08
2024-01-16T15:23:39.960Z,74.43
2024-01-16T15:27:36.766Z,74.59
2024-01-16T15:31:39.406Z,74.91
2024-01-16T15:35:31.825Z,75.05
2024-01-16T15:38:48.358Z,75.24
2024-01-16T15:42:45.895Z,75.41
2024-01-16T15:46:54.563Z,75.66
2024-01-16T15:50:16.965Z,75.80
2024-01-16T15:53:53.458Z,76.11
2024-01-16T15:57:30.113Z,76.21
2024-01-16T16:01:21.543Z,76.51
2024-01-16T16:04:26.603Z,76.78
2024-01-16T16:07:25.018Z,76.77
2024-01-16T16:11:05.852Z,76.95
2024-01-16T16:14:08.065Z,77.14
2024-01-16T16:17:48.660Z,77.32
2024-01-16T16:21:06.050Z,77.37
2024-01-16T16:25:16.933Z,77.70
2024-01-16T16:29:10.856Z,77.95
2024-01-16T16:33:04.487Z,78.08
2024-01-16T16:36:39.473Z,78.16
2024-01-16T16:39:51.860Z,78.36
2024-01-16T16:43:53.564Z,78.22
2024-01-16T16:48:04.503Z,77.90
2024-01-16T16:52:00.080Z,78.17
2024-01-16T16:55:01.425Z,78.16
2024-01-16T16:57:35.162Z,78.18
2024-01-16T17:00:29.526Z,78.08
2024-01-16T17:03:45.099Z,78.08
2024-01-16T17:06:53.849Z,78.13
2024-01-16T17:10:44.775Z,78.44
2024-01-16T17:13:41.418Z,78.55
2024-01-16T17:17:12.603Z,78.53
2024-01-16T17:20:46.226Z,78.63
2024-01-16T17:23:18.521Z,78.54
2024-01-16T17:27:33.950Z,78.71
2024-01-16T17:35:23.102Z,78.98
2024-01-16T17:37:57.289Z,78.96
2024-01-16T17:40:28.514Z,79.11
2024-01-16T17:43:39.919Z,79.29
2024-01-16T17:46:17.617Z,79.40
2024-01-16T17:50:31.685Z,79.24
2024-01-16T17:53:24.570Z,79.38
2024-01-16T17:57:16.801Z,79.60
2024-01-16T18:01:10.726Z,79.82
2024-01-16T18:04:49.041Z,80.26
2024-01-16T18:07:24.059Z,80.29
2024-01-16T18:11:00.854Z,80.39
2024-01-16T18:14:40.068Z,80.33
2024-01-16T18:18:33.859Z,80.31
2024-01-16T18:22:36.030Z,80.10
2024-01-16T18:25:09.917Z,80.29
2024-01-16T18:29:01.953Z,80.53
2024-01-16T18:32:18.791Z,80.50
2024-01-16T18:34:50.934Z,80.65
2024-01-16T18:38:15.366Z,80.95
2024-01-16T18:40:46.996Z,81.00
2024-01-16T18:43:18.492Z,80.86
2024-01-16T18:45:50.321Z,81.23
2024-01-16T18:48:22.069Z,81.35
2024-01-16T18:50:59.845Z,81.19
2024-01-16T18:53:53.008Z,81.38
2024-01-16T18:57:16.089Z,80.99
2024-01-16T18:59:47.574Z,81.42
2024-01-16T19:02:22.309Z,81.39
2024-01-16T19:09:23.206Z,81.37
2024-01-16T19:12:19.501Z,81.74
2024-01-16T19:15:57.275Z,81.80
2024-01-16T19:20:08.383Z,82.07
2024-01-16T19:23:33.970Z,81.59
2024-01-16T19:26:07.539Z,81.54
2024-01-16T19:29:40.391Z,81.71
2024-01-16T19:32:41.872Z,81.80
2024-01-16T19:35:15.723Z,81.83
2024-01-16T19:38:07.792Z,81.55
2024-01-16T19:41:28.168Z,81.53
2024-01-16T19:44:22.688Z,81.65
2024-01-16T19:47:45.042Z,81.72
2024-01-16T19:51:01.923Z,81.87
2024-01-16T19:55:00.753Z,82.11
2024-01-16T19:58:13.557Z,82.33
2024-01-16T20:00:50.647Z,82.30
2024-01-16T20:03:44.733Z,82.48
2024-01-16T20:06:16.648Z,82.28
2024-01-16T20:09:02.006Z,82.36
2024-01-16T20:12:14.569Z,82.61
2024-01-16T20:15:21.266Z,82.63
2024-01-16T20:19:36.342Z,82.59
2024-01-16T20:22:08.896Z,82.53
2024-01-16T20:24:41.129Z,82.70
2024-01-16T20:28:34.988Z,82.57
2024-01-16T20:32:07.758Z,82.54
2024-01-16T20:34:40.128Z,82.38
2024-01-16T20:37:14.711Z,82.73
2024-01-16T20:40:27.704Z,82.56
2024-01-16T20:44:22.659Z,82.88
2024-01-16T20:47:21.212Z,83.05
2024-01-16T20:54:39.689Z,83.24
2024-01-16T20:58:47.401Z,83.11
2024-01-16T21:02:58.612Z,83.64
2024-01-16T21:07:09.622Z,83.49
2024-01-16T21:11:16.281Z,83.49
2024-01-16T21:15:38.526Z,83.26
2024-01-16T21:19:59.399Z,83.19
2024-01-16T21:23:55.331Z,83.22
2024-01-16T21:26:52.443Z,83.25
2024-01-16T21:30:35.708Z,83.21
2024-01-16T21:33:09.132Z,83.09
2024-01-16T21:35:43.568Z,83.34
2024-01-16T21:39:36.951Z,83.15
2024-01-16T21:42:48.260Z,83.43
2024-01-16T21:45:19.675Z,83.15
2024-01-16T21:48:34.172Z,83.16
2024-01-16T21:52:06.560Z,83.41
2024-01-16T21:54:58.789Z,83.33
2024-01-16T21:58:54.067Z,83.29
2024-01-16T22:01:49.139Z,83.22
2024-01-16T22:04:44.063Z,83.40
2024-01-16T22:07:55.872Z,83.46
2024-01-16T22:11:06.835Z,83.52
2024-01-16T22:13:40.255Z,83.57
2024-01-16T22:16:12.233Z,83.66
2024-01-16T22:19:03.729Z,83.52
2024-01-16T22:22:15.603Z,83.73
2024-01-16T22:24:47.699Z,83.61
2024-01-16T22:27:19.297Z,83.68
2024-01-16T22:29:51.846Z,83.78
2024-01-16T22:32:23.347Z,83.70
2024-01-16T22:36:01.439Z,83.87
2024-01-16T22:39:15.458Z,83.90
2024-01-16T22:41:49.755Z,83.88
2024-01-16T22:44:49.863Z,83.95
2024-01-16T22:47:52.400Z,83.85
2024-01-16T22:50:25.258Z,83.77
2024-01-16T22:53:25.850Z,83.86
2024-01-16T22:55:58.094Z,83.73
2024-01-16T22:58:55.148Z,83.87
2024-01-16T23:01:36.869Z,83.89
2024-01-16T23:04:12.108Z,83.77
2024-01-16T23:06:43.279Z,83.71
2024-01-16T23:09:14.274Z,83.59
2024-01-16T23:11:47.105Z,83.70
2024-01-16T23:15:43.907Z,83.88
2024-01-16T23:19:17.902Z,83.99
2024-01-16T23:21:54.796Z,83.96
2024-01-16T23:28:57.648Z,84.01
2024-01-16T23:32:23.203Z,84.00
2024-01-16T23:34:54.902Z,83.97
2024-01-16T23:37:49.753Z,84.03
2024-01-16T23:41:29.371Z,84.18
2024-01-16T23:44:01.882Z,84.17
2024-01-16T23:47:32.398Z,84.07
2024-01-16T23:50:26.935Z,84.08
2024-01-16T23:53:29.101Z,84.13
2024-01-16T23:56:00.653Z,84.07
2024-01-16T23:58:32.965Z,84.15
